Cabo Peñas, Asturias

latitud = 43° 39' 20''N | longitud = 005° 50' 57''W
100 metros sobre el nivel del mar | datos mensuales

Fecha, hora, temperatura, viento dirección y velocidad, humedad y presión.

  • 22-11-2017 09:00:00 | 17.90°C | Sur |5.00 km/h | 36.00% | 0.00 hPa
  • 22-11-2017 08:00:00 | 16.80°C | Sudoeste |12.00 km/h | 36.00% | 0.00 hPa
  • 22-11-2017 07:00:00 | 17.60°C | Sudoeste |12.00 km/h | 36.00% | 0.00 hPa
  • 22-11-2017 06:00:00 | 17.60°C | Sur |10.00 km/h | 36.00% | 0.00 hPa
  • 22-11-2017 05:00:00 | 17.00°C | Sur |11.00 km/h | 36.00% | 0.00 hPa
  • 22-11-2017 04:00:00 | 16.30°C | Sur |15.00 km/h | 38.00% | 0.00 hPa
  • 22-11-2017 03:00:00 | 16.40°C | Sur |7.00 km/h | 38.00% | 0.00 hPa
  • 22-11-2017 02:00:00 | 15.70°C | Sur |8.00 km/h | 38.00% | 0.00 hPa
  • 22-11-2017 01:00:00 | 16.00°C | Sur |5.00 km/h | 39.00% | 0.00 hPa
  • 22-11-2017 00:00:00 | 14.30°C | Sudeste |17.00 km/h | 45.00% | 0.00 hPa
  • 21-11-2017 23:00:00 | 14.70°C | Sudeste |9.00 km/h | 50.00% | 0.00 hPa
  • 21-11-2017 22:00:00 | 16.10°C | Sudeste |4.00 km/h | 47.00% | 0.00 hPa
  • 21-11-2017 21:00:00 | 13.90°C | Sudeste |14.00 km/h | 76.00% | 0.00 hPa
  • 21-11-2017 20:00:00 | 13.70°C | Sudeste |19.00 km/h | 87.00% | 0.00 hPa
  • 21-11-2017 19:00:00 | 13.90°C | Sudeste |19.00 km/h | 85.00% | 0.00 hPa
  • 21-11-2017 18:00:00 | 14.30°C | Sudeste |17.00 km/h | 85.00% | 0.00 hPa
  • 21-11-2017 17:00:00 | 14.70°C | Sudeste |14.00 km/h | 85.00% | 0.00 hPa
  • 21-11-2017 16:00:00 | 15.80°C | Este |17.00 km/h | 60.00% | 0.00 hPa
  • 21-11-2017 15:00:00 | 17.00°C | Sudeste |11.00 km/h | 69.00% | 0.00 hPa
  • 21-11-2017 14:00:00 | 16.80°C | Sudeste |9.00 km/h | 58.00% | 0.00 hPa
  • 21-11-2017 13:00:00 | 18.60°C | Sudeste |3.00 km/h | 48.00% | 0.00 hPa
  • 21-11-2017 12:00:00 | 19.00°C | Sudeste |3.00 km/h | 41.00% | 0.00 hPa
  • 21-11-2017 11:00:00 | 17.20°C | Sudeste |3.00 km/h | 43.00% | 0.00 hPa
  • 21-11-2017 10:00:00 | 16.00°C | Sur |4.00 km/h | 47.00% | 0.00 hPa